If you wish to contribute or participate in the discussions about articles you are invited to join SKYbrary as a registered user

 Actions

Angoulême-Brie-Champniers Airport

From SKYbrary Wiki

LFBU
Airport
ICAO: LFBU – IATA: ANG
Summary
Name Angoulême-Brie-Champniers Airport
Region Europe
Territory France FR.gif
Location , Poitou-Charentes
Serving Angouleme
Elevation 132.893 m <br />436 ft <br />436 ft132.893 m <br />
Type medium airport
Coordinates 45° 43' 45.29" N, 0° 13' 17.24" E
Runways
Designator Length Width Surface ROPS
10/28 1810 m5,938.32 ft <br /> 45 m147.638 ft <br /> ASP /


METAR
Observation LFBU 181730Z AUTO 03005KT 360V060 CAVOK 14/01 Q1021 NOSIG
Station BRIE CHAMPNIERS
Date/Time 18 April 2021 17:30:00
Wind direction 30°
Wind speed 05 kts
Lowest cloud amount clouds and visibility OK
Temperature 14°C
Dew point 1°C
Humidity 41%
QNH 1021 hPa
Weather condition n/a